sensor_id;sensor_type;location;lat;lon;timestamp;temperature;humidity
20558;DHT22;10437;48.156;11.530;2023-07-08T00:02:00;20.70;90.30
20558;DHT22;10437;48.156;11.530;2023-07-08T00:09:21;20.50;99.90
20558;DHT22;10437;48.156;11.530;2023-07-08T00:14:16;20.70;96.90
20558;DHT22;10437;48.156;11.530;2023-07-08T00:16:43;20.40;99.90
20558;DHT22;10437;48.156;11.530;2023-07-08T00:19:12;20.70;99.90
20558;DHT22;10437;48.156;11.530;2023-07-08T00:21:38;20.80;99.90
20558;DHT22;10437;48.156;11.530;2023-07-08T00:24:05;20.10;95.00
20558;DHT22;10437;48.156;11.530;2023-07-08T00:26:32;20.70;99.90
20558;DHT22;10437;48.156;11.530;2023-07-08T00:31:26;20.40;99.90
20558;DHT22;10437;48.156;11.530;2023-07-08T00:33:54;20.40;91.20
20558;DHT22;10437;48.156;11.530;2023-07-08T00:36:24;20.40;91.60
20558;DHT22;10437;48.156;11.530;2023-07-08T00:41:22;20.30;95.30
20558;DHT22;10437;48.156;11.530;2023-07-08T00:43:52;20.30;91.50
20558;DHT22;10437;48.156;11.530;2023-07-08T00:46:29;20.20;91.50
20558;DHT22;10437;48.156;11.530;2023-07-08T00:49:01;20.30;91.80
20558;DHT22;10437;48.156;11.530;2023-07-08T00:51:32;20.20;95.50
20558;DHT22;10437;48.156;11.530;2023-07-08T00:53:59;19.20;90.30
20558;DHT22;10437;48.156;11.530;2023-07-08T00:56:29;20.50;98.70
20558;DHT22;10437;48.156;11.530;2023-07-08T00:58:59;20.40;99.90
20558;DHT22;10437;48.156;11.530;2023-07-08T01:01:28;20.20;90.50
20558;DHT22;10437;48.156;11.530;2023-07-08T01:03:58;19.90;92.10
20558;DHT22;10437;48.156;11.530;2023-07-08T01:06:29;20.20;99.90
20558;DHT22;10437;48.156;11.530;2023-07-08T01:09:01;20.10;92.40
20558;DHT22;10437;48.156;11.530;2023-07-08T01:11:31;20.30;99.90
20558;DHT22;10437;48.156;11.530;2023-07-08T01:14:00;20.00;99.90
20558;DHT22;10437;48.156;11.530;2023-07-08T01:16:28;20.30;96.20
20558;DHT22;10437;48.156;11.530;2023-07-08T01:18:59;20.10;92.90
20558;DHT22;10437;48.156;11.530;2023-07-08T01:21:31;20.30;99.90
20558;DHT22;10437;48.156;11.530;2023-07-08T01:24:01;20.00;93.30
20558;DHT22;10437;48.156;11.530;2023-07-08T01:26:29;20.00;93.30
20558;DHT22;10437;48.156;11.530;2023-07-08T01:28:58;20.00;99.90
20558;DHT22;10437;48.156;11.530;2023-07-08T01:33:52;19.90;93.10
20558;DHT22;10437;48.156;11.530;2023-07-08T01:41:16;19.80;95.30
20558;DHT22;10437;48.156;11.530;2023-07-08T01:43:43;19.60;99.90
20558;DHT22;10437;48.156;11.530;2023-07-08T01:46:13;19.60;94.70
20558;DHT22;10437;48.156;11.530;2023-07-08T01:48:45;19.60;99.90
20558;DHT22;10437;48.156;11.530;2023-07-08T01:51:13;19.90;99.90
20558;DHT22;10437;48.156;11.530;2023-07-08T01:53:41;19.90;95.40
20558;DHT22;10437;48.156;11.530;2023-07-08T01:56:10;19.90;95.60
20558;DHT22;10437;48.156;11.530;2023-07-08T01:58:38;19.80;95.50
20558;DHT22;10437;48.156;11.530;2023-07-08T02:01:06;19.70;94.40
20558;DHT22;10437;48.156;11.530;2023-07-08T02:03:33;19.80;94.90
20558;DHT22;10437;48.156;11.530;2023-07-08T02:10:57;19.70;96.20
20558;DHT22;10437;48.156;11.530;2023-07-08T02:15:53;19.30;99.90
20558;DHT22;10437;48.156;11.530;2023-07-08T02:18:20;19.30;96.30
20558;DHT22;10437;48.156;11.530;2023-07-08T02:23:16;19.40;99.90
20558;DHT22;10437;48.156;11.530;2023-07-08T02:25:50;19.40;98.00
20558;DHT22;10437;48.156;11.530;2023-07-08T02:30:44;19.80;98.10
20558;DHT22;10437;48.156;11.530;2023-07-08T02:33:13;19.40;99.10
20558;DHT22;10437;48.156;11.530;2023-07-08T02:35:43;19.40;99.90
20558;DHT22;10437;48.156;11.530;2023-07-08T02:38:10;19.40;99.90
20558;DHT22;10437;48.156;11.530;2023-07-08T02:40:37;19.10;99.90
20558;DHT22;10437;48.156;11.530;2023-07-08T02:45:30;19.00;99.90
20558;DHT22;10437;48.156;11.530;2023-07-08T02:50:26;18.90;99.90
20558;DHT22;10437;48.156;11.530;2023-07-08T02:52:52;19.30;99.90
20558;DHT22;10437;48.156;11.530;2023-07-08T02:57:46;19.00;99.90
20558;DHT22;10437;48.156;11.530;2023-07-08T03:00:14;19.10;99.90
20558;DHT22;10437;48.156;11.530;2023-07-08T03:02:41;19.20;99.90
20558;DHT22;10437;48.156;11.530;2023-07-08T03:07:36;19.00;99.90
20558;DHT22;10437;48.156;11.530;2023-07-08T03:10:03;19.20;98.90
20558;DHT22;10437;48.156;11.530;2023-07-08T03:22:19;19.30;99.90
20558;DHT22;10437;48.156;11.530;2023-07-08T03:24:47;19.30;99.90
20558;DHT22;10437;48.156;11.530;2023-07-08T03:29:41;19.10;99.90
20558;DHT22;10437;48.156;11.530;2023-07-08T03:32:10;19.00;99.90
20558;DHT22;10437;48.156;11.530;2023-07-08T03:34:37;19.10;99.90
20558;DHT22;10437;48.156;11.530;2023-07-08T03:37:04;19.30;99.90
20558;DHT22;10437;48.156;11.530;2023-07-08T03:39:31;19.20;99.90
20558;DHT22;10437;48.156;11.530;2023-07-08T03:42:00;21.20;99.90
20558;DHT22;10437;48.156;11.530;2023-07-08T03:44:27;19.00;99.90
20558;DHT22;10437;48.156;11.530;2023-07-08T03:49:22;19.10;99.90
20558;DHT22;10437;48.156;11.530;2023-07-08T03:51:51;19.20;99.90
20558;DHT22;10437;48.156;11.530;2023-07-08T03:54:20;18.90;99.90
20558;DHT22;10437;48.156;11.530;2023-07-08T03:56:47;19.10;99.90
20558;DHT22;10437;48.156;11.530;2023-07-08T03:59:15;18.90;99.90
20558;DHT22;10437;48.156;11.530;2023-07-08T04:04:12;19.10;99.90
20558;DHT22;10437;48.156;11.530;2023-07-08T04:06:40;19.00;99.90
20558;DHT22;10437;48.156;11.530;2023-07-08T04:09:07;19.40;99.90
20558;DHT22;10437;48.156;11.530;2023-07-08T04:11:34;18.60;99.90
20558;DHT22;10437;48.156;11.530;2023-07-08T04:16:46;19.10;99.90
20558;DHT22;10437;48.156;11.530;2023-07-08T04:19:15;19.10;99.90
20558;DHT22;10437;48.156;11.530;2023-07-08T04:21:43;19.40;99.90
20558;DHT22;10437;48.156;11.530;2023-07-08T04:24:11;19.20;99.90
20558;DHT22;10437;48.156;11.530;2023-07-08T04:29:08;19.20;99.90
20558;DHT22;10437;48.156;11.530;2023-07-08T04:31:38;19.40;99.90
20558;DHT22;10437;48.156;11.530;2023-07-08T04:36:32;19.40;99.90
20558;DHT22;10437;48.156;11.530;2023-07-08T04:39:00;19.40;99.90
20558;DHT22;10437;48.156;11.530;2023-07-08T04:41:26;19.40;99.90
20558;DHT22;10437;48.156;11.530;2023-07-08T04:43:54;19.10;99.90
20558;DHT22;10437;48.156;11.530;2023-07-08T04:46:29;19.30;99.90
20558;DHT22;10437;48.156;11.530;2023-07-08T04:49:02;19.40;99.90
20558;DHT22;10437;48.156;11.530;2023-07-08T04:56:25;19.30;99.90
20558;DHT22;10437;48.156;11.530;2023-07-08T05:06:15;19.30;99.90
20558;DHT22;10437;48.156;11.530;2023-07-08T05:08:41;19.40;99.90
20558;DHT22;10437;48.156;11.530;2023-07-08T05:16:03;19.40;99.90
20558;DHT22;10437;48.156;11.530;2023-07-08T05:23:25;19.40;99.90
20558;DHT22;10437;48.156;11.530;2023-07-08T05:30:52;19.30;99.90
20558;DHT22;10437;48.156;11.530;2023-07-08T05:40:42;19.10;99.90
20558;DHT22;10437;48.156;11.530;2023-07-08T05:43:09;19.30;99.90
20558;DHT22;10437;48.156;11.530;2023-07-08T05:48:04;19.10;99.90
20558;DHT22;10437;48.156;11.530;2023-07-08T05:50:31;19.40;99.90
20558;DHT22;10437;48.156;11.530;2023-07-08T05:52:57;19.30;99.90
20558;DHT22;10437;48.156;11.530;2023-07-08T05:55:24;19.50;99.90
20558;DHT22;10437;48.156;11.530;2023-07-08T05:57:52;19.40;99.90
20558;DHT22;10437;48.156;11.530;2023-07-08T06:02:46;19.60;99.90
20558;DHT22;10437;48.156;11.530;2023-07-08T06:07:40;20.10;99.90
20558;DHT22;10437;48.156;11.530;2023-07-08T06:10:07;20.00;99.90
20558;DHT22;10437;48.156;11.530;2023-07-08T06:15:05;20.40;99.90
20558;DHT22;10437;48.156;11.530;2023-07-08T06:27:21;20.30;99.90
20558;DHT22;10437;48.156;11.530;2023-07-08T06:32:17;20.40;99.90
20558;DHT22;10437;48.156;11.530;2023-07-08T06:34:44;20.80;99.90
20558;DHT22;10437;48.156;11.530;2023-07-08T06:42:06;20.80;99.90
20558;DHT22;10437;48.156;11.530;2023-07-08T06:46:59;20.90;99.90
20558;DHT22;10437;48.156;11.530;2023-07-08T06:49:28;20.90;99.90
20558;DHT22;10437;48.156;11.530;2023-07-08T06:54:25;21.20;99.90
20558;DHT22;10437;48.156;11.530;2023-07-08T06:56:53;21.10;99.90
20558;DHT22;10437;48.156;11.530;2023-07-08T06:59:20;21.10;99.90
20558;DHT22;10437;48.156;11.530;2023-07-08T07:04:14;21.10;99.90
20558;DHT22;10437;48.156;11.530;2023-07-08T07:06:42;21.40;99.90
20558;DHT22;10437;48.156;11.530;2023-07-08T07:09:09;21.40;99.90
20558;DHT22;10437;48.156;11.530;2023-07-08T07:11:36;22.00;99.90
20558;DHT22;10437;48.156;11.530;2023-07-08T07:18:57;21.80;99.90
20558;DHT22;10437;48.156;11.530;2023-07-08T07:21:24;21.90;99.90
20558;DHT22;10437;48.156;11.530;2023-07-08T07:23:52;22.20;99.90
20558;DHT22;10437;48.156;11.530;2023-07-08T07:28:46;22.60;99.90
20558;DHT22;10437;48.156;11.530;2023-07-08T07:38:34;22.30;99.90
20558;DHT22;10437;48.156;11.530;2023-07-08T07:41:02;22.50;99.90
20558;DHT22;10437;48.156;11.530;2023-07-08T07:43:32;22.60;99.90
20558;DHT22;10437;48.156;11.530;2023-07-08T07:45:59;22.50;99.90
20558;DHT22;10437;48.156;11.530;2023-07-08T07:48:26;22.90;99.90
20558;DHT22;10437;48.156;11.530;2023-07-08T07:50:52;23.10;99.90
20558;DHT22;10437;48.156;11.530;2023-07-08T07:58:15;23.10;99.90
20558;DHT22;10437;48.156;11.530;2023-07-08T08:03:09;23.30;99.90
20558;DHT22;10437;48.156;11.530;2023-07-08T08:05:36;23.10;99.90
20558;DHT22;10437;48.156;11.530;2023-07-08T08:08:03;23.60;99.90
20558;DHT22;10437;48.156;11.530;2023-07-08T08:10:30;23.00;99.90
20558;DHT22;10437;48.156;11.530;2023-07-08T08:15:26;23.10;99.90
20558;DHT22;10437;48.156;11.530;2023-07-08T08:20:21;23.10;99.90
20558;DHT22;10437;48.156;11.530;2023-07-08T08:22:49;23.60;99.90
20558;DHT22;10437;48.156;11.530;2023-07-08T08:25:18;23.20;99.90
20558;DHT22;10437;48.156;11.530;2023-07-08T08:30:13;23.20;99.90
20558;DHT22;10437;48.156;11.530;2023-07-08T08:32:41;23.60;99.90
20558;DHT22;10437;48.156;11.530;2023-07-08T08:35:08;23.60;99.90
20558;DHT22;10437;48.156;11.530;2023-07-08T08:40:03;23.90;99.90
20558;DHT22;10437;48.156;11.530;2023-07-08T08:42:33;23.70;98.10
20558;DHT22;10437;48.156;11.530;2023-07-08T08:45:02;23.60;99.90
20558;DHT22;10437;48.156;11.530;2023-07-08T08:47:35;24.10;99.90
20558;DHT22;10437;48.156;11.530;2023-07-08T08:50:24;24.00;97.70
20558;DHT22;10437;48.156;11.530;2023-07-08T08:52:53;24.20;96.70
20558;DHT22;10437;48.156;11.530;2023-07-08T08:55:21;24.60;97.60
20558;DHT22;10437;48.156;11.530;2023-07-08T08:57:53;24.40;96.90
20558;DHT22;10437;48.156;11.530;2023-07-08T09:00:25;24.40;96.40
20558;DHT22;10437;48.156;11.530;2023-07-08T09:03:01;24.60;99.90
20558;DHT22;10437;48.156;11.530;2023-07-08T09:05:30;24.40;99.90
20558;DHT22;10437;48.156;11.530;2023-07-08T09:08:05;24.20;99.90
20558;DHT22;10437;48.156;11.530;2023-07-08T09:10:48;24.70;99.90
20558;DHT22;10437;48.156;11.530;2023-07-08T09:13:30;25.00;99.90
20558;DHT22;10437;48.156;11.530;2023-07-08T09:16:04;25.00;99.90
20558;DHT22;10437;48.156;11.530;2023-07-08T09:18:36;24.80;96.20
20558;DHT22;10437;48.156;11.530;2023-07-08T09:21:16;24.70;96.90
20558;DHT22;10437;48.156;11.530;2023-07-08T09:23:47;25.00;98.50
20558;DHT22;10437;48.156;11.530;2023-07-08T09:26:17;24.90;96.90
20558;DHT22;10437;48.156;11.530;2023-07-08T09:31:22;24.70;96.90
20558;DHT22;10437;48.156;11.530;2023-07-08T09:33:51;24.90;99.90
20558;DHT22;10437;48.156;11.530;2023-07-08T09:36:24;24.90;96.70
20558;DHT22;10437;48.156;11.530;2023-07-08T09:38:51;25.00;96.30
20558;DHT22;10437;48.156;11.530;2023-07-08T09:41:32;24.50;98.30
20558;DHT22;10437;48.156;11.530;2023-07-08T09:44:05;24.70;99.90
20558;DHT22;10437;48.156;11.530;2023-07-08T09:46:36;25.00;96.60
20558;DHT22;10437;48.156;11.530;2023-07-08T09:49:15;24.80;99.90
20558;DHT22;10437;48.156;11.530;2023-07-08T09:51:44;25.30;96.30
20558;DHT22;10437;48.156;11.530;2023-07-08T09:54:11;25.40;99.90
20558;DHT22;10437;48.156;11.530;2023-07-08T09:56:41;25.30;99.90
20558;DHT22;10437;48.156;11.530;2023-07-08T09:59:12;25.70;95.30
20558;DHT22;10437;48.156;11.530;2023-07-08T10:01:41;26.00;99.90
20558;DHT22;10437;48.156;11.530;2023-07-08T10:04:08;26.30;99.90
20558;DHT22;10437;48.156;11.530;2023-07-08T10:09:08;26.50;93.10
20558;DHT22;10437;48.156;11.530;2023-07-08T10:11:42;26.30;93.70
20558;DHT22;10437;48.156;11.530;2023-07-08T10:14:20;26.30;99.90
20558;DHT22;10437;48.156;11.530;2023-07-08T10:19:18;27.20;91.00
20558;DHT22;10437;48.156;11.530;2023-07-08T10:21:51;27.20;90.90
20558;DHT22;10437;48.156;11.530;2023-07-08T10:24:30;27.30;91.10
20558;DHT22;10437;48.156;11.530;2023-07-08T10:27:08;27.20;99.90
20558;DHT22;10437;48.156;11.530;2023-07-08T10:29:45;27.70;99.90
20558;DHT22;10437;48.156;11.530;2023-07-08T10:32:23;27.70;99.90
20558;DHT22;10437;48.156;11.530;2023-07-08T10:34:57;28.10;99.90
20558;DHT22;10437;48.156;11.530;2023-07-08T10:37:34;28.40;90.90
20558;DHT22;10437;48.156;11.530;2023-07-08T10:40:22;28.30;82.90
20558;DHT22;10437;48.156;11.530;2023-07-08T10:43:09;28.80;85.00
20558;DHT22;10437;48.156;11.530;2023-07-08T10:45:46;28.90;84.90
20558;DHT22;10437;48.156;11.530;2023-07-08T10:51:13;28.90;84.00
20558;DHT22;10437;48.156;11.530;2023-07-08T10:53:56;28.90;84.90
20558;DHT22;10437;48.156;11.530;2023-07-08T10:56:31;28.90;96.80
20558;DHT22;10437;48.156;11.530;2023-07-08T10:59:28;29.30;99.90
20558;DHT22;10437;48.156;11.530;2023-07-08T11:02:32;29.50;98.20
20558;DHT22;10437;48.156;11.530;2023-07-08T11:05:14;28.80;99.80
20558;DHT22;10437;48.156;11.530;2023-07-08T11:07:49;29.00;99.40
20558;DHT22;10437;48.156;11.530;2023-07-08T11:10:22;29.70;94.30
20558;DHT22;10437;48.156;11.530;2023-07-08T11:12:54;29.80;82.10
20558;DHT22;10437;48.156;11.530;2023-07-08T11:15:26;30.00;80.10
20558;DHT22;10437;48.156;11.530;2023-07-08T11:17:58;30.20;98.70
20558;DHT22;10437;48.156;11.530;2023-07-08T11:20:37;29.50;97.40
20558;DHT22;10437;48.156;11.530;2023-07-08T11:23:22;29.50;78.30
20558;DHT22;10437;48.156;11.530;2023-07-08T11:25:52;29.50;79.90
20558;DHT22;10437;48.156;11.530;2023-07-08T11:28:22;30.10;89.00
20558;DHT22;10437;48.156;11.530;2023-07-08T11:30:51;30.30;98.70
20558;DHT22;10437;48.156;11.530;2023-07-08T11:33:23;30.40;98.00
20558;DHT22;10437;48.156;11.530;2023-07-08T11:35:52;30.30;76.60
20558;DHT22;10437;48.156;11.530;2023-07-08T11:38:21;29.90;93.10
20558;DHT22;10437;48.156;11.530;2023-07-08T11:40:58;30.40;78.80
20558;DHT22;10437;48.156;11.530;2023-07-08T11:43:32;30.10;97.30
20558;DHT22;10437;48.156;11.530;2023-07-08T11:46:05;30.30;97.20
20558;DHT22;10437;48.156;11.530;2023-07-08T11:48:40;30.70;97.50
20558;DHT22;10437;48.156;11.530;2023-07-08T11:51:09;30.70;76.00
20558;DHT22;10437;48.156;11.530;2023-07-08T11:53:48;30.70;75.80
20558;DHT22;10437;48.156;11.530;2023-07-08T11:56:21;30.70;73.70
20558;DHT22;10437;48.156;11.530;2023-07-08T11:59:05;30.90;79.30
20558;DHT22;10437;48.156;11.530;2023-07-08T12:01:39;31.00;96.30
20558;DHT22;10437;48.156;11.530;2023-07-08T12:06:47;33.60;75.50
20558;DHT22;10437;48.156;11.530;2023-07-08T12:09:20;30.80;72.30
20558;DHT22;10437;48.156;11.530;2023-07-08T12:11:53;30.80;72.20
20558;DHT22;10437;48.156;11.530;2023-07-08T12:16:47;30.40;95.10
20558;DHT22;10437;48.156;11.530;2023-07-08T12:19:17;31.00;95.30
20558;DHT22;10437;48.156;11.530;2023-07-08T12:24:13;30.80;93.50
20558;DHT22;10437;48.156;11.530;2023-07-08T12:26:41;30.60;92.00
20558;DHT22;10437;48.156;11.530;2023-07-08T12:29:11;30.80;92.60
20558;DHT22;10437;48.156;11.530;2023-07-08T12:31:40;30.50;92.50
20558;DHT22;10437;48.156;11.530;2023-07-08T12:34:11;30.70;64.50
20558;DHT22;10437;48.156;11.530;2023-07-08T12:36:41;30.90;86.80
20558;DHT22;10437;48.156;11.530;2023-07-08T12:39:12;30.60;62.00
20558;DHT22;10437;48.156;11.530;2023-07-08T12:41:42;30.40;91.10
20558;DHT22;10437;48.156;11.530;2023-07-08T12:44:16;30.30;64.70
20558;DHT22;10437;48.156;11.530;2023-07-08T12:46:46;30.50;66.90
20558;DHT22;10437;48.156;11.530;2023-07-08T12:49:14;30.20;67.00
20558;DHT22;10437;48.156;11.530;2023-07-08T12:51:43;30.10;84.30
20558;DHT22;10437;48.156;11.530;2023-07-08T12:56:37;30.00;92.90
20558;DHT22;10437;48.156;11.530;2023-07-08T12:59:05;30.40;67.80
20558;DHT22;10437;48.156;11.530;2023-07-08T13:01:35;29.90;93.50
20558;DHT22;10437;48.156;11.530;2023-07-08T13:04:06;30.50;86.80
20558;DHT22;10437;48.156;11.530;2023-07-08T13:06:36;30.30;66.40
20558;DHT22;10437;48.156;11.530;2023-07-08T13:09:08;30.30;67.40
20558;DHT22;10437;48.156;11.530;2023-07-08T13:11:36;30.60;93.20
20558;DHT22;10437;48.156;11.530;2023-07-08T13:14:05;30.40;93.40
20558;DHT22;10437;48.156;11.530;2023-07-08T13:16:35;30.10;90.40
20558;DHT22;10437;48.156;11.530;2023-07-08T13:19:03;30.70;76.30
20558;DHT22;10437;48.156;11.530;2023-07-08T13:21:31;30.60;72.90
20558;DHT22;10437;48.156;11.530;2023-07-08T13:23:59;30.50;92.40
20558;DHT22;10437;48.156;11.530;2023-07-08T13:26:27;30.10;92.50
20558;DHT22;10437;48.156;11.530;2023-07-08T13:29:00;30.10;66.30
20558;DHT22;10437;48.156;11.530;2023-07-08T13:31:34;30.10;65.50
20558;DHT22;10437;48.156;11.530;2023-07-08T13:34:07;30.30;91.90
20558;DHT22;10437;48.156;11.530;2023-07-08T13:36:36;29.50;89.60
20558;DHT22;10437;48.156;11.530;2023-07-08T13:39:06;29.80;66.20
20558;DHT22;10437;48.156;11.530;2023-07-08T13:41:33;30.20;91.80
20558;DHT22;10437;48.156;11.530;2023-07-08T13:44:04;29.70;92.00
20558;DHT22;10437;48.156;11.530;2023-07-08T13:46:36;29.70;64.90
20558;DHT22;10437;48.156;11.530;2023-07-08T13:49:11;30.10;91.70
20558;DHT22;10437;48.156;11.530;2023-07-08T13:54:15;29.70;91.40
20558;DHT22;10437;48.156;11.530;2023-07-08T13:56:42;30.30;91.60
20558;DHT22;10437;48.156;11.530;2023-07-08T13:59:15;30.00;91.50
20558;DHT22;10437;48.156;11.530;2023-07-08T14:01:44;30.50;91.70
20558;DHT22;10437;48.156;11.530;2023-07-08T14:04:13;30.30;91.50
20558;DHT22;10437;48.156;11.530;2023-07-08T14:06:40;30.20;61.00
20558;DHT22;10437;48.156;11.530;2023-07-08T14:09:12;30.00;62.50
20558;DHT22;10437;48.156;11.530;2023-07-08T14:11:39;29.50;90.50
20558;DHT22;10437;48.156;11.530;2023-07-08T14:14:07;29.80;62.70
20558;DHT22;10437;48.156;11.530;2023-07-08T14:16:36;29.40;90.70
20558;DHT22;10437;48.156;11.530;2023-07-08T14:19:06;30.10;91.10
20558;DHT22;10437;48.156;11.530;2023-07-08T14:21:35;29.50;90.80
20558;DHT22;10437;48.156;11.530;2023-07-08T14:24:04;29.50;91.00
20558;DHT22;10437;48.156;11.530;2023-07-08T14:29:02;29.30;91.00
20558;DHT22;10437;48.156;11.530;2023-07-08T14:34:01;29.70;69.40
20558;DHT22;10437;48.156;11.530;2023-07-08T14:36:30;29.30;75.60
20558;DHT22;10437;48.156;11.530;2023-07-08T14:38:57;29.40;88.20
20558;DHT22;10437;48.156;11.530;2023-07-08T14:41:24;29.70;91.90
20558;DHT22;10437;48.156;11.530;2023-07-08T14:43:52;29.50;76.00
20558;DHT22;10437;48.156;11.530;2023-07-08T14:48:45;29.40;90.80
20558;DHT22;10437;48.156;11.530;2023-07-08T14:51:12;29.90;91.20
20558;DHT22;10437;48.156;11.530;2023-07-08T14:53:40;29.50;62.70
20558;DHT22;10437;48.156;11.530;2023-07-08T14:56:14;29.60;78.00
20558;DHT22;10437;48.156;11.530;2023-07-08T14:58:44;29.30;63.10
20558;DHT22;10437;48.156;11.530;2023-07-08T15:01:17;29.30;61.80
20558;DHT22;10437;48.156;11.530;2023-07-08T15:06:12;28.50;59.90
20558;DHT22;10437;48.156;11.530;2023-07-08T15:08:40;29.30;62.80
20558;DHT22;10437;48.156;11.530;2023-07-08T15:11:10;29.30;62.20
20558;DHT22;10437;48.156;11.530;2023-07-08T15:13:38;29.20;73.70
20558;DHT22;10437;48.156;11.530;2023-07-08T15:25:55;29.00;90.80
20558;DHT22;10437;48.156;11.530;2023-07-08T15:28:39;29.00;61.90
20558;DHT22;10437;48.156;11.530;2023-07-08T15:31:08;29.10;90.80
20558;DHT22;10437;48.156;11.530;2023-07-08T15:33:36;28.80;90.70
20558;DHT22;10437;48.156;11.530;2023-07-08T15:36:03;28.70;91.60
20558;DHT22;10437;48.156;11.530;2023-07-08T15:40:58;28.70;64.40
20558;DHT22;10437;48.156;11.530;2023-07-08T15:45:53;28.70;91.80
20558;DHT22;10437;48.156;11.530;2023-07-08T15:50:47;28.60;91.70
20558;DHT22;10437;48.156;11.530;2023-07-08T15:53:15;28.40;86.20
20558;DHT22;10437;48.156;11.530;2023-07-08T15:55:43;28.70;64.30
20558;DHT22;10437;48.156;11.530;2023-07-08T15:58:21;28.70;92.00
20558;DHT22;10437;48.156;11.530;2023-07-08T16:00:50;28.80;75.50
20558;DHT22;10437;48.156;11.530;2023-07-08T16:03:21;28.90;92.00
20558;DHT22;10437;48.156;11.530;2023-07-08T16:05:49;28.30;92.30
20558;DHT22;10437;48.156;11.530;2023-07-08T16:10:45;28.70;92.30
20558;DHT22;10437;48.156;11.530;2023-07-08T16:13:20;28.50;88.60
20558;DHT22;10437;48.156;11.530;2023-07-08T16:18:15;28.20;92.40
20558;DHT22;10437;48.156;11.530;2023-07-08T16:25:39;28.60;84.00
20558;DHT22;10437;48.156;11.530;2023-07-08T16:28:08;28.60;78.00
20558;DHT22;10437;48.156;11.530;2023-07-08T16:30:43;28.60;92.30
20558;DHT22;10437;48.156;11.530;2023-07-08T16:33:09;28.30;93.40
20558;DHT22;10437;48.156;11.530;2023-07-08T16:38:03;27.90;93.40
20558;DHT22;10437;48.156;11.530;2023-07-08T16:45:26;28.10;85.80
20558;DHT22;10437;48.156;11.530;2023-07-08T16:47:54;27.70;82.40
20558;DHT22;10437;48.156;11.530;2023-07-08T16:50:26;27.80;63.90
20558;DHT22;10437;48.156;11.530;2023-07-08T17:00:19;27.50;70.70
20558;DHT22;10437;48.156;11.530;2023-07-08T17:02:47;27.50;93.90
20558;DHT22;10437;48.156;11.530;2023-07-08T17:05:20;27.90;93.60
20558;DHT22;10437;48.156;11.530;2023-07-08T17:10:18;27.40;73.90
20558;DHT22;10437;48.156;11.530;2023-07-08T17:12:45;27.30;90.30
20558;DHT22;10437;48.156;11.530;2023-07-08T17:15:14;27.60;93.60
20558;DHT22;10437;48.156;11.530;2023-07-08T17:17:45;27.60;93.30
20558;DHT22;10437;48.156;11.530;2023-07-08T17:20:16;27.70;69.00
20558;DHT22;10437;48.156;11.530;2023-07-08T17:22:46;26.80;68.80
20558;DHT22;10437;48.156;11.530;2023-07-08T17:25:15;27.70;76.20
20558;DHT22;10437;48.156;11.530;2023-07-08T17:30:11;27.30;69.00
20558;DHT22;10437;48.156;11.530;2023-07-08T17:32:39;27.80;94.10
20558;DHT22;10437;48.156;11.530;2023-07-08T17:35:10;27.40;70.00
20558;DHT22;10437;48.156;11.530;2023-07-08T17:40:12;27.30;70.60
20558;DHT22;10437;48.156;11.530;2023-07-08T17:45:09;27.10;84.10
20558;DHT22;10437;48.156;11.530;2023-07-08T17:50:12;27.30;70.60
20558;DHT22;10437;48.156;11.530;2023-07-08T17:55:07;27.50;94.80
20558;DHT22;10437;48.156;11.530;2023-07-08T17:57:36;27.10;72.40
20558;DHT22;10437;48.156;11.530;2023-07-08T18:00:05;27.00;95.60
20558;DHT22;10437;48.156;11.530;2023-07-08T18:02:35;26.90;74.40
20558;DHT22;10437;48.156;11.530;2023-07-08T18:09:56;27.40;96.30
20558;DHT22;10437;48.156;11.530;2023-07-08T18:14:52;26.80;96.20
20558;DHT22;10437;48.156;11.530;2023-07-08T18:17:18;26.80;77.00
20558;DHT22;10437;48.156;11.530;2023-07-08T18:19:45;26.30;96.60
20558;DHT22;10437;48.156;11.530;2023-07-08T18:22:12;26.50;96.00
20558;DHT22;10437;48.156;11.530;2023-07-08T18:24:39;26.80;97.10
20558;DHT22;10437;48.156;11.530;2023-07-08T18:27:07;26.70;87.70
20558;DHT22;10437;48.156;11.530;2023-07-08T18:29:35;26.80;97.70
20558;DHT22;10437;48.156;11.530;2023-07-08T18:32:09;26.40;78.50
20558;DHT22;10437;48.156;11.530;2023-07-08T18:41:57;26.40;96.50
20558;DHT22;10437;48.156;11.530;2023-07-08T18:44:26;26.30;79.80
20558;DHT22;10437;48.156;11.530;2023-07-08T18:46:54;26.20;78.90
20558;DHT22;10437;48.156;11.530;2023-07-08T18:49:23;26.50;98.90
20558;DHT22;10437;48.156;11.530;2023-07-08T18:51:51;25.90;91.60
20558;DHT22;10437;48.156;11.530;2023-07-08T18:54:20;26.10;81.40
20558;DHT22;10437;48.156;11.530;2023-07-08T18:56:47;26.10;79.00
20558;DHT22;10437;48.156;11.530;2023-07-08T19:01:43;25.80;99.20
20558;DHT22;10437;48.156;11.530;2023-07-08T19:04:11;25.60;99.30
20558;DHT22;10437;48.156;11.530;2023-07-08T19:06:42;25.90;82.20
20558;DHT22;10437;48.156;11.530;2023-07-08T19:11:37;25.90;82.40
20558;DHT22;10437;48.156;11.530;2023-07-08T19:14:11;25.70;82.20
20558;DHT22;10437;48.156;11.530;2023-07-08T19:19:05;26.00;94.50
20558;DHT22;10437;48.156;11.530;2023-07-08T19:21:32;25.50;82.50
20558;DHT22;10437;48.156;11.530;2023-07-08T19:24:00;25.50;83.00
20558;DHT22;10437;48.156;11.530;2023-07-08T19:26:28;25.30;99.90
20558;DHT22;10437;48.156;11.530;2023-07-08T19:28:55;27.80;82.90
20558;DHT22;10437;48.156;11.530;2023-07-08T19:31:24;25.80;99.90
20558;DHT22;10437;48.156;11.530;2023-07-08T19:33:54;25.50;99.90
20558;DHT22;10437;48.156;11.530;2023-07-08T19:36:21;25.10;83.00
20558;DHT22;10437;48.156;11.530;2023-07-08T19:38:49;25.30;99.90
20558;DHT22;10437;48.156;11.530;2023-07-08T19:41:20;25.20;99.40
20558;DHT22;10437;48.156;11.530;2023-07-08T19:43:49;25.00;99.90
20558;DHT22;10437;48.156;11.530;2023-07-08T19:48:43;25.10;84.60
20558;DHT22;10437;48.156;11.530;2023-07-08T19:51:11;25.40;86.30
20558;DHT22;10437;48.156;11.530;2023-07-08T19:53:38;25.20;99.90
20558;DHT22;10437;48.156;11.530;2023-07-08T19:56:12;25.20;81.60
20558;DHT22;10437;48.156;11.530;2023-07-08T19:58:41;25.10;99.90
20558;DHT22;10437;48.156;11.530;2023-07-08T20:06:10;25.00;88.20
20558;DHT22;10437;48.156;11.530;2023-07-08T20:11:08;24.50;99.90
20558;DHT22;10437;48.156;11.530;2023-07-08T20:13:35;25.10;99.90
20558;DHT22;10437;48.156;11.530;2023-07-08T20:16:12;24.80;88.20
20558;DHT22;10437;48.156;11.530;2023-07-08T20:23:34;24.80;94.30
20558;DHT22;10437;48.156;11.530;2023-07-08T20:26:03;24.90;90.10